| time (UTC) | temp F | wind direction | speed MPH | gust MPH | rain 1hr in | rain 24hr in | rain mn in | humidity % | barometer mb |
| 20260503024025 | 81 | 316 | 0.0 | 2.0 | 0.00 | 0.00 | 0.00 | 81 | 1015.5 |
| 20260503023038 | 81 | 354 | 1.0 | 3.0 | 0.00 | 0.00 | 0.00 | 80 | 1015.6 |
| 20260503022033 | 81 | 342 | 1.0 | 3.0 | 0.00 | 0.00 | 0.00 | 79 | 1015.4 |
| 20260503021026 | 81 | 335 | 1.0 | 4.0 | 0.00 | 0.00 | 0.00 | 78 | 1015.2 |
| 20260503020040 | 82 | 333 | 1.0 | 3.0 | 0.00 | 0.00 | 0.00 | 76 | 1015.3 |
| 20260503015034 | 82 | 345 | 1.0 | 3.0 | 0.00 | 0.00 | 0.00 | 75 | 1015.4 |
| 20260503014028 | 82 | 356 | 1.0 | 3.0 | 0.00 | 0.00 | 0.00 | 74 | 1015.3 |
| 20260503013021 | 83 | 352 | 1.0 | 4.0 | 0.00 | 0.00 | 0.00 | 73 | 1015.2 |
| 20260503012035 | 83 | 354 | 1.0 | 2.0 | 0.00 | 0.00 | 0.00 | 71 | 1015.1 |
| 20260503011029 | 83 | 349 | 1.0 | 4.0 | 0.00 | 0.00 | 0.00 | 70 | 1014.9 |
| 20260503010022 | 83 | 348 | 1.0 | 2.0 | 0.00 | 0.00 | 0.00 | 68 | 1014.7 |
| 20260503005016 | 84 | 352 | 1.0 | 3.0 | 0.00 | 0.00 | 0.00 | 66 | 1014.5 |
| 20260503004030 | 84 | 1 | 1.0 | 4.0 | 0.00 | 0.00 | 0.00 | 65 | 1014.5 |
| 20260503003024 | 85 | 353 | 1.0 | 4.0 | 0.00 | 0.00 | 0.00 | 63 | 1014.2 |
| 20260503002018 | 85 | 346 | 2.0 | 4.0 | 0.00 | 0.00 | 0.00 | 61 | 1014.2 |
| 20260503001031 | 86 | 333 | 1.0 | 3.0 | 0.00 | 0.00 | 0.00 | 58 | 1014.0 |
| 20260503000024 | 86 | 325 | 1.0 | 5.0 | 0.00 | 0.00 | 0.00 | 55 | 1013.9 |
| 20260502235016 | 87 | 190 | 1.0 | 4.0 | 0.00 | 0.00 | 0.00 | 58 | 1013.7 |
| 20260502234030 | 87 | 357 | 0.0 | 3.0 | 0.00 | 0.00 | 0.00 | 57 | 1013.5 |
| 20260502233023 | 88 | 177 | 3.0 | 6.0 | 0.00 | 0.00 | 0.00 | 56 | 1013.3 |
| 20260502232016 | 89 | 183 | 1.0 | 4.0 | 0.00 | 0.00 | 0.00 | 54 | 1013.0 |
| 20260502231029 | 90 | 179 | 2.0 | 5.0 | 0.00 | 0.00 | 0.00 | 52 | 1012.8 |
| 20260502230021 | 91 | 189 | 2.0 | 4.0 | 0.00 | 0.00 | 0.00 | 51 | 1012.6 |
| 20260502225032 | 92 | 198 | 2.0 | 4.0 | 0.00 | 0.00 | 0.00 | 50 | 1012.5 |
| 20260502224105 | 94 | 193 | 2.0 | 5.0 | 0.00 | 0.00 | 0.00 | 46 | 1012.5 |
| 20260502223018 | 94 | 190 | 3.0 | 9.0 | 0.00 | 0.00 | 0.00 | 49 | 1012.4 |
| 20260502222029 | 95 | 295 | 1.0 | 3.0 | 0.00 | 0.00 | 0.00 | 44 | 1012.5 |
| 20260502221022 | 95 | 209 | 2.0 | 4.0 | 0.00 | 0.00 | 0.00 | 49 | 1012.5 |
| 20260502220113 | 94 | 206 | 2.0 | 5.0 | 0.00 | 0.00 | 0.00 | 50 | 1012.4 |
| 20260502215026 | 94 | 190 | 2.0 | 8.0 | 0.00 | 0.00 | 0.00 | 50 | 1012.3 |
| 20260502214017 | 96 | 195 | 2.0 | 6.0 | 0.00 | 0.00 | 0.00 | 48 | 1012.3 |
| 20260502213032 | 96 | 221 | 2.0 | 5.0 | 0.00 | 0.00 | 0.00 | 47 | 1012.0 |
| 20260502212024 | 96 | 227 | 1.0 | 4.0 | 0.00 | 0.00 | 0.00 | 44 | 1011.9 |
| 20260502211036 | 97 | 312 | 2.0 | 5.0 | 0.00 | 0.00 | 0.00 | 41 | 1012.0 |
| 20260502210026 | 97 | 193 | 2.0 | 6.0 | 0.00 | 0.00 | 0.00 | 41 | 1011.8 |
| 20260502205018 | 96 | 199 | 2.0 | 5.0 | 0.00 | 0.00 | 0.00 | 41 | 1011.8 |
| 20260502204032 | 96 | 189 | 2.0 | 6.0 | 0.00 | 0.00 | 0.00 | 41 | 1011.8 |
| 20260502203024 | 96 | 200 | 2.0 | 6.0 | 0.00 | 0.00 | 0.00 | 41 | 1012.0 |
| 20260502202017 | 96 | 195 | 3.0 | 8.0 | 0.00 | 0.00 | 0.00 | 42 | 1012.1 |
| 20260502201030 | 96 | 191 | 2.0 | 7.0 | 0.00 | 0.00 | 0.00 | 42 | 1012.2 |
| 20260502200022 | 96 | 227 | 1.0 | 5.0 | 0.00 | 0.00 | 0.00 | 43 | 1012.5 |
| 20260502195034 | 96 | 207 | 2.0 | 6.0 | 0.00 | 0.00 | 0.00 | 44 | 1012.5 |
| 20260502194025 | 96 | 266 | 2.0 | 5.0 | 0.00 | 0.00 | 0.00 | 45 | 1012.6 |
| 20260502193016 | 96 | 212 | 2.0 | 4.0 | 0.00 | 0.00 | 0.00 | 45 | 1012.8 |
| 20260502192028 | 95 | 212 | 3.0 | 7.0 | 0.00 | 0.00 | 0.00 | 47 | 1012.8 |
| 20260502191019 | 94 | 177 | 3.0 | 8.0 | 0.00 | 0.00 | 0.00 | 47 | 1013.0 |
| 20260502190029 | 94 | 185 | 3.0 | 6.0 | 0.00 | 0.00 | 0.00 | 50 | 1012.9 |
| 20260502185022 | 93 | 172 | 3.0 | 9.0 | 0.00 | 0.00 | 0.00 | 51 | 1013.0 |
| 20260502184035 | 94 | 186 | 2.0 | 7.0 | 0.00 | 0.00 | 0.00 | 50 | 1013.0 |
| 20260502183025 | 93 | 189 | 2.0 | 5.0 | 0.00 | 0.00 | 0.00 | 54 | 1013.1 |
| 20260502182035 | 93 | 186 | 3.0 | 5.0 | 0.00 | 0.00 | 0.00 | 54 | 1013.3 |
| 20260502181025 | 92 | 186 | 2.0 | 7.0 | 0.00 | 0.00 | 0.00 | 55 | 1013.2 |
| 20260502164018 | 91 | 184 | 4.0 | 9.0 | 0.00 | 0.00 | 0.00 | 65 | 1013.7 |
| 20260502163029 | 90 | 172 | 4.0 | 10.0 | 0.00 | 0.00 | 0.00 | 66 | 1013.9 |
| 20260502162019 | 90 | 189 | 2.0 | 7.0 | 0.00 | 0.00 | 0.00 | 66 | 1013.8 |
| 20260502161030 | 90 | 183 | 4.0 | 11.0 | 0.00 | 0.00 | 0.00 | 66 | 1014.0 |
| 20260502152023 | 88 | 185 | 3.0 | 11.0 | 0.00 | 0.00 | 0.00 | 74 | 1014.1 |
| 20260502151029 | 87 | 175 | 5.0 | 9.0 | 0.00 | 0.00 | 0.00 | 74 | 1014.1 |
| 20260502123027 | 80 | 189 | 2.0 | 4.0 | 0.00 | 0.00 | 0.00 | 93 | 1013.8 |
| 20260502122035 | 79 | 181 | 0.0 | 3.0 | 0.00 | 0.00 | 0.00 | 95 | 1013.8 |
| 20260502121048 | 78 | 155 | 0.0 | 2.0 | 0.00 | 0.00 | 0.00 | 96 | 1013.7 |
| 20260502115053 | 77 | 0.0 | 2.0 | 0.00 | 0.00 | 0.00 | 99 | 1013.5 | |
| 20260502114027 | 76 | 0.0 | 1.0 | 0.00 | 0.00 | 0.00 | 99 | 1013.6 | |
| 20260502113021 | 76 | 0.0 | 0.0 | 0.00 | 0.00 | 0.00 | 99 | 1013.5 | |
| 20260502112035 | 76 | 0.0 | 1.0 | 0.00 | 0.00 | 0.00 | 99 | 1013.6 | |
| 20260502111028 | 75 | 148 | 0.0 | 2.0 | 0.00 | 0.00 | 0.00 | 99 | 1013.6 |
| 20260502110041 | 75 | 55 | 0.0 | 2.0 | 0.00 | 0.00 | 0.00 | 99 | 1013.6 |
| 20260502105035 | 75 | 13 | 0.0 | 2.0 | 0.00 | 0.00 | 0.00 | 99 | 1013.5 |
| 20260502104028 | 75 | 0.0 | 0.0 | 0.00 | 0.00 | 0.00 | 99 | 1013.4 | |
| 20260502103022 | 74 | 0.0 | 0.0 | 0.00 | 0.00 | 0.00 | 99 | 1013.5 | |
| 20260502102036 | 74 | 0.0 | 0.0 | 0.00 | 0.00 | 0.00 | 99 | 1013.6 | |
| 20260502101029 | 75 | 32 | 0.0 | 1.0 | 0.00 | 0.00 | 0.00 | 99 | 1013.5 |
| 20260502091029 | 76 | 0.0 | 1.0 | 0.00 | 0.00 | 0.00 | 99 | 1013.3 | |
| 20260502071031 | 73 | 0.0 | 0.0 | 0.00 | 0.00 | 0.00 | 99 | 1013.5 | |
| 20260502070045 | 73 | 0.0 | 0.0 | 0.00 | 0.00 | 0.00 | 99 | 1013.4 | |
| 20260502065018 | 73 | 0.0 | 0.0 | 0.00 | 0.00 | 0.00 | 99 | 1013.3 | |
| 20260502064033 | 73 | 0.0 | 0.0 | 0.00 | 0.00 | 0.00 | 99 | 1013.5 | |
| 20260502063026 | 73 | 0.0 | 0.0 | 0.00 | 0.00 | 0.00 | 99 | 1013.5 | |
| 20260502062019 | 73 | 0.0 | 0.0 | 0.00 | 0.00 | 0.00 | 99 | 1013.6 | |
| 20260502061053 | 73 | 0.0 | 0.0 | 0.00 | 0.00 | 0.00 | 99 | 1013.5 | |
| 20260502060027 | 73 | 0.0 | 0.0 | 0.00 | 0.00 | 0.00 | 99 | 1013.6 | |
| 20260502055021 | 73 | 0.0 | 0.0 | 0.00 | 0.00 | 0.00 | 99 | 1013.6 | |
| 20260502054035 | 73 | 0.0 | 0.0 | 0.00 | 0.00 | 0.00 | 99 | 1013.6 | |
| 20260502053029 | 73 | 0.0 | 0.0 | 0.00 | 0.00 | 0.00 | 99 | 1013.7 | |
| 20260502052023 | 73 | 0.0 | 0.0 | 0.00 | 0.00 | 0.00 | 99 | 1013.7 | |
| 20260502051036 | 73 | 0.0 | 0.0 | 0.00 | 0.00 | 0.00 | 99 | 1013.9 | |
| 20260502050031 | 73 | 0.0 | 0.0 | 0.00 | 0.00 | 0.00 | 98 | 1014.1 | |
| 20260502045025 | 73 | 0.0 | 0.0 | 0.00 | 0.00 | 0.00 | 98 | 1014.2 | |
| 20260502044059 | 73 | 0.0 | 0.0 | 0.00 | 0.00 | 0.00 | 98 | 1014.3 | |
| 20260502043054 | 73 | 0.0 | 0.0 | 0.00 | 0.00 | 0.00 | 97 | 1014.5 | |
| 20260502042048 | 74 | 0.0 | 0.0 | 0.00 | 0.00 | 0.00 | 97 | 1014.3 | |
| 20260502041022 | 74 | 0.0 | 0.0 | 0.00 | 0.00 | 0.00 | 97 | 1014.3 | |
| 20260502040016 | 74 | 0.0 | 0.0 | 0.00 | 0.00 | 0.00 | 96 | 1014.4 | |
| 20260502035030 | 74 | 0.0 | 0.0 | 0.00 | 0.00 | 0.00 | 96 | 1014.5 | |
| 20260502034023 | 75 | 0.0 | 0.0 | 0.00 | 0.00 | 0.00 | 95 | 1014.4 | |
| 20260502033017 | 75 | 0.0 | 0.0 | 0.00 | 0.00 | 0.00 | 94 | 1014.4 | |
| 20260502032032 | 76 | 0.0 | 0.0 | 0.00 | 0.00 | 0.00 | 94 | 1014.4 | |
| 20260502031025 | 76 | 0.0 | 0.0 | 0.00 | 0.00 | 0.00 | 92 | 1014.4 | |
| 20260502030040 | 77 | 0.0 | 0.0 | 0.00 | 0.00 | 0.00 | 91 | 1014.4 | |
| 20260502025033 | 77 | 0.0 | 0.0 | 0.00 | 0.00 | 0.00 | 90 | 1014.2 |